sensor_id;sensor_type;location;lat;lon;timestamp;temperature;humidity
72936;DHT22;61085;48.804;9.228;2023-05-25T00:00:27;11.90;88.20
72936;DHT22;61085;48.804;9.228;2023-05-25T00:02:53;11.90;88.70
72936;DHT22;61085;48.804;9.228;2023-05-25T00:05:19;11.90;89.30
72936;DHT22;61085;48.804;9.228;2023-05-25T00:07:45;11.80;90.00
72936;DHT22;61085;48.804;9.228;2023-05-25T00:10:11;11.80;90.20
72936;DHT22;61085;48.804;9.228;2023-05-25T00:12:37;11.90;90.30
72936;DHT22;61085;48.804;9.228;2023-05-25T00:15:06;11.80;90.60
72936;DHT22;61085;48.804;9.228;2023-05-25T00:17:32;11.90;91.30
72936;DHT22;61085;48.804;9.228;2023-05-25T00:19:58;11.80;90.70
72936;DHT22;61085;48.804;9.228;2023-05-25T00:22:36;11.80;91.00
72936;DHT22;61085;48.804;9.228;2023-05-25T00:25:03;11.70;91.80
72936;DHT22;61085;48.804;9.228;2023-05-25T00:27:29;11.90;91.70
72936;DHT22;61085;48.804;9.228;2023-05-25T00:29:55;11.90;91.90
72936;DHT22;61085;48.804;9.228;2023-05-25T00:32:21;11.90;92.20
72936;DHT22;61085;48.804;9.228;2023-05-25T00:34:47;12.00;92.20
72936;DHT22;61085;48.804;9.228;2023-05-25T00:37:13;12.00;92.20
72936;DHT22;61085;48.804;9.228;2023-05-25T00:39:39;12.00;92.20
72936;DHT22;61085;48.804;9.228;2023-05-25T00:42:06;12.10;92.40
72936;DHT22;61085;48.804;9.228;2023-05-25T00:44:32;12.20;92.40
72936;DHT22;61085;48.804;9.228;2023-05-25T00:46:58;12.10;92.40
72936;DHT22;61085;48.804;9.228;2023-05-25T00:49:24;12.20;92.50
72936;DHT22;61085;48.804;9.228;2023-05-25T00:51:52;12.10;93.00
72936;DHT22;61085;48.804;9.228;2023-05-25T00:54:18;12.20;92.80
72936;DHT22;61085;48.804;9.228;2023-05-25T00:57:00;12.20;93.00
72936;DHT22;61085;48.804;9.228;2023-05-25T01:02:07;12.20;93.20
72936;DHT22;61085;48.804;9.228;2023-05-25T01:04:36;12.20;92.90
72936;DHT22;61085;48.804;9.228;2023-05-25T01:07:03;12.20;93.00
72936;DHT22;61085;48.804;9.228;2023-05-25T01:09:31;12.20;93.10
72936;DHT22;61085;48.804;9.228;2023-05-25T01:11:59;12.20;93.10
72936;DHT22;61085;48.804;9.228;2023-05-25T01:14:27;12.20;93.00
72936;DHT22;61085;48.804;9.228;2023-05-25T01:16:53;12.10;93.10
72936;DHT22;61085;48.804;9.228;2023-05-25T01:19:21;12.00;93.30
72936;DHT22;61085;48.804;9.228;2023-05-25T01:21:58;12.00;94.10
72936;DHT22;61085;48.804;9.228;2023-05-25T01:27:25;11.90;93.90
72936;DHT22;61085;48.804;9.228;2023-05-25T01:29:55;11.80;94.10
72936;DHT22;61085;48.804;9.228;2023-05-25T01:32:22;11.80;94.60
72936;DHT22;61085;48.804;9.228;2023-05-25T01:34:49;11.90;94.50
72936;DHT22;61085;48.804;9.228;2023-05-25T01:37:17;11.90;95.00
72936;DHT22;61085;48.804;9.228;2023-05-25T01:39:43;11.70;94.90
72936;DHT22;61085;48.804;9.228;2023-05-25T01:42:09;11.70;95.30
72936;DHT22;61085;48.804;9.228;2023-05-25T01:44:36;11.70;95.40
72936;DHT22;61085;48.804;9.228;2023-05-25T01:47:09;11.60;95.60
72936;DHT22;61085;48.804;9.228;2023-05-25T01:49:50;11.40;95.90
72936;DHT22;61085;48.804;9.228;2023-05-25T01:52:31;11.40;96.00
72936;DHT22;61085;48.804;9.228;2023-05-25T01:55:11;11.50;96.20
72936;DHT22;61085;48.804;9.228;2023-05-25T01:57:41;11.50;96.40
72936;DHT22;61085;48.804;9.228;2023-05-25T02:00:09;11.50;96.80
72936;DHT22;61085;48.804;9.228;2023-05-25T02:02:37;11.50;97.00
72936;DHT22;61085;48.804;9.228;2023-05-25T02:05:05;11.40;96.90
72936;DHT22;61085;48.804;9.228;2023-05-25T02:07:32;11.40;97.40
72936;DHT22;61085;48.804;9.228;2023-05-25T02:09:58;11.40;98.00
72936;DHT22;61085;48.804;9.228;2023-05-25T02:12:24;11.40;97.30
72936;DHT22;61085;48.804;9.228;2023-05-25T02:14:49;11.40;97.80
72936;DHT22;61085;48.804;9.228;2023-05-25T02:17:15;11.40;97.90
72936;DHT22;61085;48.804;9.228;2023-05-25T02:19:42;11.40;98.00
72936;DHT22;61085;48.804;9.228;2023-05-25T02:22:08;11.40;97.70
72936;DHT22;61085;48.804;9.228;2023-05-25T02:24:34;11.40;98.10
72936;DHT22;61085;48.804;9.228;2023-05-25T02:26:59;11.40;98.30
72936;DHT22;61085;48.804;9.228;2023-05-25T02:29:26;11.30;98.50
72936;DHT22;61085;48.804;9.228;2023-05-25T02:31:52;11.30;98.60
72936;DHT22;61085;48.804;9.228;2023-05-25T02:34:17;11.30;99.10
72936;DHT22;61085;48.804;9.228;2023-05-25T02:36:43;11.20;99.30
72936;DHT22;61085;48.804;9.228;2023-05-25T02:39:10;11.20;99.00
72936;DHT22;61085;48.804;9.228;2023-05-25T02:41:36;11.20;99.30
72936;DHT22;61085;48.804;9.228;2023-05-25T02:44:02;11.20;99.40
72936;DHT22;61085;48.804;9.228;2023-05-25T02:46:28;11.10;99.70
72936;DHT22;61085;48.804;9.228;2023-05-25T02:48:53;11.20;99.90
72936;DHT22;61085;48.804;9.228;2023-05-25T02:51:19;11.20;99.80
72936;DHT22;61085;48.804;9.228;2023-05-25T02:53:44;11.10;99.90
72936;DHT22;61085;48.804;9.228;2023-05-25T02:56:10;11.10;99.90
72936;DHT22;61085;48.804;9.228;2023-05-25T02:58:36;11.10;99.90
72936;DHT22;61085;48.804;9.228;2023-05-25T03:01:03;11.20;99.90
72936;DHT22;61085;48.804;9.228;2023-05-25T03:03:30;11.00;99.50
72936;DHT22;61085;48.804;9.228;2023-05-25T03:05:56;11.00;99.90
72936;DHT22;61085;48.804;9.228;2023-05-25T03:08:22;11.10;99.90
72936;DHT22;61085;48.804;9.228;2023-05-25T03:10:48;10.90;99.90
72936;DHT22;61085;48.804;9.228;2023-05-25T03:13:14;10.90;99.90
72936;DHT22;61085;48.804;9.228;2023-05-25T03:15:40;10.90;99.90
72936;DHT22;61085;48.804;9.228;2023-05-25T03:18:06;10.90;99.90
72936;DHT22;61085;48.804;9.228;2023-05-25T03:20:32;10.90;99.90
72936;DHT22;61085;48.804;9.228;2023-05-25T03:22:58;10.80;99.90
72936;DHT22;61085;48.804;9.228;2023-05-25T03:25:24;10.90;99.90
72936;DHT22;61085;48.804;9.228;2023-05-25T03:27:53;10.90;99.90
72936;DHT22;61085;48.804;9.228;2023-05-25T03:30:20;10.90;99.90
72936;DHT22;61085;48.804;9.228;2023-05-25T03:32:48;10.90;99.90
72936;DHT22;61085;48.804;9.228;2023-05-25T03:35:14;10.90;99.90
72936;DHT22;61085;48.804;9.228;2023-05-25T03:37:40;10.90;99.90
72936;DHT22;61085;48.804;9.228;2023-05-25T03:40:06;10.90;99.90
72936;DHT22;61085;48.804;9.228;2023-05-25T03:42:33;10.90;99.90
72936;DHT22;61085;48.804;9.228;2023-05-25T03:44:59;10.90;99.90
72936;DHT22;61085;48.804;9.228;2023-05-25T03:47:25;10.90;99.90
72936;DHT22;61085;48.804;9.228;2023-05-25T03:49:50;10.90;99.90
72936;DHT22;61085;48.804;9.228;2023-05-25T03:52:16;10.80;99.90
72936;DHT22;61085;48.804;9.228;2023-05-25T03:54:42;10.80;99.90
72936;DHT22;61085;48.804;9.228;2023-05-25T03:57:07;10.90;99.90
72936;DHT22;61085;48.804;9.228;2023-05-25T03:59:33;10.90;99.90
72936;DHT22;61085;48.804;9.228;2023-05-25T04:01:58;11.00;99.90
72936;DHT22;61085;48.804;9.228;2023-05-25T04:04:24;11.10;99.90
72936;DHT22;61085;48.804;9.228;2023-05-25T04:06:50;11.40;99.90
72936;DHT22;61085;48.804;9.228;2023-05-25T04:09:19;11.90;99.80
72936;DHT22;61085;48.804;9.228;2023-05-25T04:11:44;12.40;97.90
72936;DHT22;61085;48.804;9.228;2023-05-25T04:14:10;13.10;96.60
72936;DHT22;61085;48.804;9.228;2023-05-25T04:16:36;13.80;94.40
72936;DHT22;61085;48.804;9.228;2023-05-25T04:19:02;14.40;92.50
72936;DHT22;61085;48.804;9.228;2023-05-25T04:21:28;15.00;90.90
72936;DHT22;61085;48.804;9.228;2023-05-25T04:23:53;15.50;90.10
72936;DHT22;61085;48.804;9.228;2023-05-25T04:26:19;16.20;86.60
72936;DHT22;61085;48.804;9.228;2023-05-25T04:28:45;16.10;80.90
72936;DHT22;61085;48.804;9.228;2023-05-25T04:31:11;16.50;80.50
72936;DHT22;61085;48.804;9.228;2023-05-25T04:33:38;16.80;77.80
72936;DHT22;61085;48.804;9.228;2023-05-25T04:36:07;17.50;76.60
72936;DHT22;61085;48.804;9.228;2023-05-25T04:38:35;18.10;73.30
72936;DHT22;61085;48.804;9.228;2023-05-25T04:41:01;18.30;68.00
72936;DHT22;61085;48.804;9.228;2023-05-25T04:43:28;18.60;64.80
72936;DHT22;61085;48.804;9.228;2023-05-25T04:45:58;18.40;67.70
72936;DHT22;61085;48.804;9.228;2023-05-25T04:48:24;19.00;64.90
72936;DHT22;61085;48.804;9.228;2023-05-25T04:50:53;19.40;61.80
72936;DHT22;61085;48.804;9.228;2023-05-25T04:53:21;19.70;59.10
72936;DHT22;61085;48.804;9.228;2023-05-25T04:55:46;19.50;57.10
72936;DHT22;61085;48.804;9.228;2023-05-25T04:58:13;20.10;58.20
72936;DHT22;61085;48.804;9.228;2023-05-25T05:00:39;20.30;55.30
72936;DHT22;61085;48.804;9.228;2023-05-25T07:39:13;14.90;87.20
72936;DHT22;61085;48.804;9.228;2023-05-25T07:41:38;15.00;88.20
72936;DHT22;61085;48.804;9.228;2023-05-25T07:44:04;15.00;88.60
72936;DHT22;61085;48.804;9.228;2023-05-25T07:48:56;15.20;87.50
72936;DHT22;61085;48.804;9.228;2023-05-25T07:51:24;15.10;89.40
72936;DHT22;61085;48.804;9.228;2023-05-25T07:53:51;15.30;90.00
72936;DHT22;61085;48.804;9.228;2023-05-25T07:56:18;15.30;89.50
72936;DHT22;61085;48.804;9.228;2023-05-25T07:58:44;15.40;89.10
72936;DHT22;61085;48.804;9.228;2023-05-25T08:01:12;15.50;88.80
72936;DHT22;61085;48.804;9.228;2023-05-25T08:03:38;15.60;88.70
72936;DHT22;61085;48.804;9.228;2023-05-25T08:06:04;15.70;87.50
72936;DHT22;61085;48.804;9.228;2023-05-25T08:08:30;15.80;88.10
72936;DHT22;61085;48.804;9.228;2023-05-25T08:10:56;16.10;87.50
72936;DHT22;61085;48.804;9.228;2023-05-25T08:15:48;16.20;86.30
72936;DHT22;61085;48.804;9.228;2023-05-25T08:18:14;16.50;85.30
72936;DHT22;61085;48.804;9.228;2023-05-25T08:20:40;16.70;85.50
72936;DHT22;61085;48.804;9.228;2023-05-25T08:23:06;17.00;84.10
72936;DHT22;61085;48.804;9.228;2023-05-25T08:25:32;17.10;83.20
72936;DHT22;61085;48.804;9.228;2023-05-25T08:27:58;17.00;81.30
72936;DHT22;61085;48.804;9.228;2023-05-25T08:30:24;17.30;81.40
72936;DHT22;61085;48.804;9.228;2023-05-25T08:32:49;17.30;81.30
72936;DHT22;61085;48.804;9.228;2023-05-25T08:35:15;17.80;81.20
72936;DHT22;61085;48.804;9.228;2023-05-25T08:37:42;17.80;78.30
72936;DHT22;61085;48.804;9.228;2023-05-25T08:40:13;17.70;79.40
72936;DHT22;61085;48.804;9.228;2023-05-25T08:42:46;17.70;79.20
72936;DHT22;61085;48.804;9.228;2023-05-25T08:45:11;17.70;79.70
72936;DHT22;61085;48.804;9.228;2023-05-25T08:47:43;17.70;78.90
72936;DHT22;61085;48.804;9.228;2023-05-25T08:50:11;17.70;78.70
72936;DHT22;61085;48.804;9.228;2023-05-25T08:52:38;17.50;80.00
72936;DHT22;61085;48.804;9.228;2023-05-25T08:55:08;17.90;80.30
72936;DHT22;61085;48.804;9.228;2023-05-25T08:57:53;17.60;81.00
72936;DHT22;61085;48.804;9.228;2023-05-25T09:00:24;17.80;81.10
72936;DHT22;61085;48.804;9.228;2023-05-25T09:03:12;17.80;81.60
72936;DHT22;61085;48.804;9.228;2023-05-25T09:05:40;18.20;80.60
72936;DHT22;61085;48.804;9.228;2023-05-25T09:08:07;18.40;80.10
72936;DHT22;61085;48.804;9.228;2023-05-25T09:10:34;18.50;78.30
72936;DHT22;61085;48.804;9.228;2023-05-25T09:13:03;18.40;78.50
72936;DHT22;61085;48.804;9.228;2023-05-25T09:15:30;18.60;78.70
72936;DHT22;61085;48.804;9.228;2023-05-25T09:17:56;18.60;78.30
72936;DHT22;61085;48.804;9.228;2023-05-25T11:59:51;21.30;66.30
72936;DHT22;61085;48.804;9.228;2023-05-25T12:02:17;21.10;66.70
72936;DHT22;61085;48.804;9.228;2023-05-25T12:04:59;21.00;67.80
72936;DHT22;61085;48.804;9.228;2023-05-25T12:07:26;21.20;68.60
72936;DHT22;61085;48.804;9.228;2023-05-25T12:10:15;21.30;66.80
72936;DHT22;61085;48.804;9.228;2023-05-25T12:12:48;21.10;67.30
72936;DHT22;61085;48.804;9.228;2023-05-25T12:15:16;21.30;68.50
72936;DHT22;61085;48.804;9.228;2023-05-25T12:17:43;21.20;66.00
72936;DHT22;61085;48.804;9.228;2023-05-25T12:20:10;21.20;66.00
72936;DHT22;61085;48.804;9.228;2023-05-25T12:22:37;21.20;66.00
72936;DHT22;61085;48.804;9.228;2023-05-25T12:25:08;21.30;66.60
72936;DHT22;61085;48.804;9.228;2023-05-25T12:27:35;21.40;65.70
72936;DHT22;61085;48.804;9.228;2023-05-25T12:30:02;21.40;64.60
72936;DHT22;61085;48.804;9.228;2023-05-25T12:32:28;21.30;66.10
72936;DHT22;61085;48.804;9.228;2023-05-25T12:35:02;21.30;64.60
72936;DHT22;61085;48.804;9.228;2023-05-25T12:37:27;21.10;64.40
72936;DHT22;61085;48.804;9.228;2023-05-25T12:39:53;21.40;65.60
72936;DHT22;61085;48.804;9.228;2023-05-25T12:42:19;21.50;64.70
72936;DHT22;61085;48.804;9.228;2023-05-25T12:44:45;21.60;64.90
72936;DHT22;61085;48.804;9.228;2023-05-25T12:49:44;21.50;62.60
72936;DHT22;61085;48.804;9.228;2023-05-25T12:52:11;21.50;63.70
72936;DHT22;61085;48.804;9.228;2023-05-25T12:54:55;21.60;65.10
72936;DHT22;61085;48.804;9.228;2023-05-25T12:57:20;21.70;64.00
72936;DHT22;61085;48.804;9.228;2023-05-25T12:59:46;21.50;64.40
72936;DHT22;61085;48.804;9.228;2023-05-25T13:02:13;21.60;63.50
72936;DHT22;61085;48.804;9.228;2023-05-25T13:04:40;21.60;63.40
72936;DHT22;61085;48.804;9.228;2023-05-25T13:07:09;21.50;63.20
72936;DHT22;61085;48.804;9.228;2023-05-25T13:09:38;21.40;63.90
72936;DHT22;61085;48.804;9.228;2023-05-25T13:12:04;21.70;63.50
72936;DHT22;61085;48.804;9.228;2023-05-25T13:14:30;21.70;64.50
72936;DHT22;61085;48.804;9.228;2023-05-25T13:16:56;21.60;62.30
72936;DHT22;61085;48.804;9.228;2023-05-25T13:19:23;21.50;62.70
72936;DHT22;61085;48.804;9.228;2023-05-25T13:21:49;21.50;62.60
72936;DHT22;61085;48.804;9.228;2023-05-25T13:24:16;21.60;63.40
72936;DHT22;61085;48.804;9.228;2023-05-25T13:26:44;21.80;65.00
72936;DHT22;61085;48.804;9.228;2023-05-25T13:29:10;21.90;61.70
72936;DHT22;61085;48.804;9.228;2023-05-25T13:31:35;22.00;62.60
72936;DHT22;61085;48.804;9.228;2023-05-25T13:34:01;22.10;61.90
72936;DHT22;61085;48.804;9.228;2023-05-25T13:41:20;21.80;61.70
72936;DHT22;61085;48.804;9.228;2023-05-25T13:43:46;21.70;62.30
72936;DHT22;61085;48.804;9.228;2023-05-25T13:46:12;22.00;62.20
72936;DHT22;61085;48.804;9.228;2023-05-25T13:48:38;22.00;61.90
72936;DHT22;61085;48.804;9.228;2023-05-25T13:51:04;22.10;61.90
72936;DHT22;61085;48.804;9.228;2023-05-25T13:53:31;22.30;62.30
72936;DHT22;61085;48.804;9.228;2023-05-25T13:55:56;22.20;61.10
72936;DHT22;61085;48.804;9.228;2023-05-25T13:58:22;22.20;60.40
72936;DHT22;61085;48.804;9.228;2023-05-25T14:00:51;22.40;60.40
72936;DHT22;61085;48.804;9.228;2023-05-25T14:03:17;22.40;60.80
72936;DHT22;61085;48.804;9.228;2023-05-25T14:05:42;22.50;59.60
72936;DHT22;61085;48.804;9.228;2023-05-25T14:08:08;22.20;60.20
72936;DHT22;61085;48.804;9.228;2023-05-25T14:10:34;22.10;60.50
72936;DHT22;61085;48.804;9.228;2023-05-25T14:12:59;22.10;60.60
72936;DHT22;61085;48.804;9.228;2023-05-25T14:15:25;22.00;60.60
72936;DHT22;61085;48.804;9.228;2023-05-25T14:17:51;22.10;59.80
72936;DHT22;61085;48.804;9.228;2023-05-25T14:20:16;22.00;60.20
72936;DHT22;61085;48.804;9.228;2023-05-25T14:22:45;22.10;60.10
72936;DHT22;61085;48.804;9.228;2023-05-25T14:25:11;22.20;60.30
72936;DHT22;61085;48.804;9.228;2023-05-25T14:27:37;22.20;60.60
72936;DHT22;61085;48.804;9.228;2023-05-25T14:30:02;22.50;61.50
72936;DHT22;61085;48.804;9.228;2023-05-25T14:32:28;22.30;59.60
72936;DHT22;61085;48.804;9.228;2023-05-25T14:34:54;22.20;59.90
72936;DHT22;61085;48.804;9.228;2023-05-25T14:37:19;22.10;59.60
72936;DHT22;61085;48.804;9.228;2023-05-25T14:39:45;22.20;59.40
72936;DHT22;61085;48.804;9.228;2023-05-25T14:42:11;22.10;59.20
72936;DHT22;61085;48.804;9.228;2023-05-25T14:44:36;22.10;59.10
72936;DHT22;61085;48.804;9.228;2023-05-25T14:47:02;22.10;59.40
72936;DHT22;61085;48.804;9.228;2023-05-25T14:49:28;22.30;59.00
72936;DHT22;61085;48.804;9.228;2023-05-25T14:51:53;22.40;59.30
72936;DHT22;61085;48.804;9.228;2023-05-25T14:54:19;22.20;58.40
72936;DHT22;61085;48.804;9.228;2023-05-25T14:56:46;22.30;59.00
72936;DHT22;61085;48.804;9.228;2023-05-25T14:59:12;22.40;58.60
72936;DHT22;61085;48.804;9.228;2023-05-25T15:01:37;22.40;59.00
72936;DHT22;61085;48.804;9.228;2023-05-25T15:04:03;22.60;58.90
72936;DHT22;61085;48.804;9.228;2023-05-25T15:06:29;22.70;58.80
72936;DHT22;61085;48.804;9.228;2023-05-25T15:08:56;22.20;58.20
72936;DHT22;61085;48.804;9.228;2023-05-25T15:11:22;22.20;58.40
72936;DHT22;61085;48.804;9.228;2023-05-25T15:13:48;22.50;58.30
72936;DHT22;61085;48.804;9.228;2023-05-25T15:16:14;22.30;58.40
72936;DHT22;61085;48.804;9.228;2023-05-25T15:18:40;22.10;58.90
72936;DHT22;61085;48.804;9.228;2023-05-25T15:21:06;22.30;59.30
72936;DHT22;61085;48.804;9.228;2023-05-25T15:23:31;22.30;59.00
72936;DHT22;61085;48.804;9.228;2023-05-25T15:25:57;22.50;58.70
72936;DHT22;61085;48.804;9.228;2023-05-25T15:30:54;22.30;57.80
72936;DHT22;61085;48.804;9.228;2023-05-25T15:33:19;22.40;58.90
72936;DHT22;61085;48.804;9.228;2023-05-25T15:35:45;22.40;58.50
72936;DHT22;61085;48.804;9.228;2023-05-25T15:38:11;22.30;57.80
72936;DHT22;61085;48.804;9.228;2023-05-25T15:40:36;22.30;57.90
72936;DHT22;61085;48.804;9.228;2023-05-25T15:43:02;22.40;58.50
72936;DHT22;61085;48.804;9.228;2023-05-25T15:45:28;22.40;58.20
72936;DHT22;61085;48.804;9.228;2023-05-25T15:47:53;22.50;58.60
72936;DHT22;61085;48.804;9.228;2023-05-25T15:50:19;22.60;58.00
72936;DHT22;61085;48.804;9.228;2023-05-25T15:52:45;22.70;58.10
72936;DHT22;61085;48.804;9.228;2023-05-25T15:55:11;22.50;57.20
72936;DHT22;61085;48.804;9.228;2023-05-25T15:57:36;22.50;58.00
72936;DHT22;61085;48.804;9.228;2023-05-25T16:00:03;22.60;58.50
72936;DHT22;61085;48.804;9.228;2023-05-25T16:02:30;22.60;57.30
72936;DHT22;61085;48.804;9.228;2023-05-25T16:04:55;22.60;57.80
72936;DHT22;61085;48.804;9.228;2023-05-25T16:07:21;22.60;57.20
72936;DHT22;61085;48.804;9.228;2023-05-25T16:09:47;22.60;57.20
72936;DHT22;61085;48.804;9.228;2023-05-25T16:12:12;22.40;57.30
72936;DHT22;61085;48.804;9.228;2023-05-25T16:14:38;22.40;57.60
72936;DHT22;61085;48.804;9.228;2023-05-25T16:17:05;22.50;57.40
72936;DHT22;61085;48.804;9.228;2023-05-25T16:19:30;22.40;57.30
72936;DHT22;61085;48.804;9.228;2023-05-25T16:21:56;22.60;57.40
72936;DHT22;61085;48.804;9.228;2023-05-25T16:24:21;22.60;57.30
72936;DHT22;61085;48.804;9.228;2023-05-25T16:26:47;22.50;57.50
72936;DHT22;61085;48.804;9.228;2023-05-25T16:29:12;22.50;57.30
72936;DHT22;61085;48.804;9.228;2023-05-25T16:31:38;22.50;57.30
72936;DHT22;61085;48.804;9.228;2023-05-25T16:34:04;22.40;56.90
72936;DHT22;61085;48.804;9.228;2023-05-25T16:36:29;22.30;57.50
72936;DHT22;61085;48.804;9.228;2023-05-25T16:38:58;22.20;57.30
72936;DHT22;61085;48.804;9.228;2023-05-25T16:41:24;22.40;57.00
72936;DHT22;61085;48.804;9.228;2023-05-25T16:43:51;22.40;57.00
72936;DHT22;61085;48.804;9.228;2023-05-25T16:46:17;22.60;57.40
72936;DHT22;61085;48.804;9.228;2023-05-25T16:48:42;22.60;57.20
72936;DHT22;61085;48.804;9.228;2023-05-25T16:51:08;22.60;56.90
72936;DHT22;61085;48.804;9.228;2023-05-25T16:53:39;22.50;56.70
72936;DHT22;61085;48.804;9.228;2023-05-25T16:56:05;22.50;56.80
72936;DHT22;61085;48.804;9.228;2023-05-25T16:58:30;22.30;56.60
72936;DHT22;61085;48.804;9.228;2023-05-25T17:00:56;22.40;57.10
72936;DHT22;61085;48.804;9.228;2023-05-25T17:03:22;22.40;57.10
72936;DHT22;61085;48.804;9.228;2023-05-25T17:05:47;22.40;56.70
72936;DHT22;61085;48.804;9.228;2023-05-25T17:08:16;22.50;57.20
72936;DHT22;61085;48.804;9.228;2023-05-25T17:10:45;22.50;57.20
72936;DHT22;61085;48.804;9.228;2023-05-25T17:13:11;22.50;56.90
72936;DHT22;61085;48.804;9.228;2023-05-25T17:15:37;22.40;56.90
72936;DHT22;61085;48.804;9.228;2023-05-25T17:18:03;22.40;57.50
72936;DHT22;61085;48.804;9.228;2023-05-25T17:20:28;22.30;58.10
72936;DHT22;61085;48.804;9.228;2023-05-25T17:22:54;22.40;58.10
72936;DHT22;61085;48.804;9.228;2023-05-25T17:25:20;22.20;57.40
72936;DHT22;61085;48.804;9.228;2023-05-25T17:27:46;22.20;56.90
72936;DHT22;61085;48.804;9.228;2023-05-25T17:30:12;22.20;57.00
72936;DHT22;61085;48.804;9.228;2023-05-25T17:32:37;22.10;57.00
72936;DHT22;61085;48.804;9.228;2023-05-25T17:35:05;22.10;57.80
72936;DHT22;61085;48.804;9.228;2023-05-25T17:37:31;22.00;58.10
72936;DHT22;61085;48.804;9.228;2023-05-25T17:39:57;22.00;58.70
72936;DHT22;61085;48.804;9.228;2023-05-25T17:42:23;21.90;58.50
72936;DHT22;61085;48.804;9.228;2023-05-25T17:44:48;21.80;58.60
72936;DHT22;61085;48.804;9.228;2023-05-25T17:47:14;21.80;58.60
72936;DHT22;61085;48.804;9.228;2023-05-25T17:49:40;21.70;58.70
72936;DHT22;61085;48.804;9.228;2023-05-25T17:52:05;21.70;58.90
72936;DHT22;61085;48.804;9.228;2023-05-25T17:54:32;21.80;59.00
72936;DHT22;61085;48.804;9.228;2023-05-25T17:56:58;21.80;59.30
72936;DHT22;61085;48.804;9.228;2023-05-25T17:59:24;21.70;59.30
72936;DHT22;61085;48.804;9.228;2023-05-25T18:01:50;21.60;59.40
72936;DHT22;61085;48.804;9.228;2023-05-25T18:04:15;21.60;59.40
72936;DHT22;61085;48.804;9.228;2023-05-25T18:06:42;21.60;59.60
72936;DHT22;61085;48.804;9.228;2023-05-25T18:09:11;21.50;59.60
72936;DHT22;61085;48.804;9.228;2023-05-25T18:11:36;21.40;60.30
72936;DHT22;61085;48.804;9.228;2023-05-25T18:14:03;21.40;59.80
72936;DHT22;61085;48.804;9.228;2023-05-25T18:16:32;21.40;59.80
72936;DHT22;61085;48.804;9.228;2023-05-25T18:18:58;21.40;60.10
72936;DHT22;61085;48.804;9.228;2023-05-25T18:21:23;21.40;60.60
72936;DHT22;61085;48.804;9.228;2023-05-25T18:23:49;21.30;60.20
72936;DHT22;61085;48.804;9.228;2023-05-25T18:26:15;21.40;60.90
72936;DHT22;61085;48.804;9.228;2023-05-25T18:28:40;21.10;60.70
72936;DHT22;61085;48.804;9.228;2023-05-25T18:31:06;21.20;60.50
72936;DHT22;61085;48.804;9.228;2023-05-25T18:33:32;21.20;61.20
72936;DHT22;61085;48.804;9.228;2023-05-25T18:35:58;21.30;61.20
72936;DHT22;61085;48.804;9.228;2023-05-25T18:38:24;21.10;61.50
72936;DHT22;61085;48.804;9.228;2023-05-25T18:40:49;21.00;61.90
72936;DHT22;61085;48.804;9.228;2023-05-25T18:43:15;21.00;62.40
72936;DHT22;61085;48.804;9.228;2023-05-25T18:45:41;20.90;62.60
72936;DHT22;61085;48.804;9.228;2023-05-25T18:48:09;20.80;62.40
72936;DHT22;61085;48.804;9.228;2023-05-25T18:50:35;20.70;62.90
72936;DHT22;61085;48.804;9.228;2023-05-25T18:53:03;20.70;62.80
72936;DHT22;61085;48.804;9.228;2023-05-25T18:55:32;20.70;63.10
72936;DHT22;61085;48.804;9.228;2023-05-25T18:57:57;20.60;63.10
72936;DHT22;61085;48.804;9.228;2023-05-25T19:00:23;20.60;63.70
72936;DHT22;61085;48.804;9.228;2023-05-25T19:02:49;20.50;63.40
72936;DHT22;61085;48.804;9.228;2023-05-25T19:05:15;20.50;63.80
72936;DHT22;61085;48.804;9.228;2023-05-25T19:07:40;20.40;63.80
72936;DHT22;61085;48.804;9.228;2023-05-25T19:10:09;20.30;64.50
72936;DHT22;61085;48.804;9.228;2023-05-25T19:12:34;20.30;65.20
72936;DHT22;61085;48.804;9.228;2023-05-25T19:15:01;20.10;65.30
72936;DHT22;61085;48.804;9.228;2023-05-25T19:17:27;20.10;65.20
72936;DHT22;61085;48.804;9.228;2023-05-25T19:19:52;20.10;65.40
72936;DHT22;61085;48.804;9.228;2023-05-25T19:22:19;20.40;66.40
72936;DHT22;61085;48.804;9.228;2023-05-25T19:24:45;20.00;66.60
72936;DHT22;61085;48.804;9.228;2023-05-25T19:27:11;19.90;66.70
72936;DHT22;61085;48.804;9.228;2023-05-25T19:29:36;19.70;66.50
72936;DHT22;61085;48.804;9.228;2023-05-25T19:32:02;19.80;67.40
72936;DHT22;61085;48.804;9.228;2023-05-25T19:34:27;19.80;67.30
72936;DHT22;61085;48.804;9.228;2023-05-25T19:36:53;19.70;68.30
72936;DHT22;61085;48.804;9.228;2023-05-25T19:39:19;19.60;69.20
72936;DHT22;61085;48.804;9.228;2023-05-25T19:41:45;19.50;69.20
72936;DHT22;61085;48.804;9.228;2023-05-25T19:44:10;19.50;68.90
72936;DHT22;61085;48.804;9.228;2023-05-25T19:46:36;19.50;69.60
72936;DHT22;61085;48.804;9.228;2023-05-25T19:49:04;19.40;69.60
72936;DHT22;61085;48.804;9.228;2023-05-25T19:51:33;19.30;69.80
72936;DHT22;61085;48.804;9.228;2023-05-25T19:53:58;19.30;70.20
72936;DHT22;61085;48.804;9.228;2023-05-25T19:56:24;19.30;70.60
72936;DHT22;61085;48.804;9.228;2023-05-25T19:58:50;19.20;71.00
72936;DHT22;61085;48.804;9.228;2023-05-25T20:01:15;19.30;72.20
72936;DHT22;61085;48.804;9.228;2023-05-25T20:03:41;19.10;72.50
72936;DHT22;61085;48.804;9.228;2023-05-25T20:06:08;19.10;72.80
72936;DHT22;61085;48.804;9.228;2023-05-25T20:08:34;19.00;72.80
72936;DHT22;61085;48.804;9.228;2023-05-25T20:11:01;18.90;73.90
72936;DHT22;61085;48.804;9.228;2023-05-25T20:13:27;18.90;74.70
72936;DHT22;61085;48.804;9.228;2023-05-25T20:15:53;18.90;74.70
72936;DHT22;61085;48.804;9.228;2023-05-25T20:18:19;18.80;75.20
72936;DHT22;61085;48.804;9.228;2023-05-25T20:20:45;18.80;75.30
72936;DHT22;61085;48.804;9.228;2023-05-25T20:23:10;18.70;76.00
72936;DHT22;61085;48.804;9.228;2023-05-25T20:25:36;18.70;76.50
72936;DHT22;61085;48.804;9.228;2023-05-25T20:28:02;18.70;77.30
72936;DHT22;61085;48.804;9.228;2023-05-25T20:30:27;18.60;76.80
72936;DHT22;61085;48.804;9.228;2023-05-25T20:32:53;18.60;77.30
72936;DHT22;61085;48.804;9.228;2023-05-25T20:35:22;18.50;78.40
72936;DHT22;61085;48.804;9.228;2023-05-25T20:37:47;18.50;78.50
72936;DHT22;61085;48.804;9.228;2023-05-25T20:40:16;18.40;77.60
72936;DHT22;61085;48.804;9.228;2023-05-25T20:42:42;18.40;77.50
72936;DHT22;61085;48.804;9.228;2023-05-25T20:45:08;18.40;78.40
72936;DHT22;61085;48.804;9.228;2023-05-25T20:47:33;18.40;79.80
72936;DHT22;61085;48.804;9.228;2023-05-25T20:49:59;18.30;80.30
72936;DHT22;61085;48.804;9.228;2023-05-25T20:52:33;18.30;81.50
72936;DHT22;61085;48.804;9.228;2023-05-25T20:55:02;18.20;82.30
72936;DHT22;61085;48.804;9.228;2023-05-25T20:57:28;18.20;83.00
72936;DHT22;61085;48.804;9.228;2023-05-25T20:59:54;18.10;83.90
72936;DHT22;61085;48.804;9.228;2023-05-25T21:02:25;18.10;84.10